sensor_id;sensor_type;location;lat;lon;timestamp;P1;durP1;ratioP1;P2;durP2;ratioP2
25715;SDS011;13573;50.936;4.328;2022-11-15T00:02:09;40.47;;;22.97;;
25715;SDS011;13573;50.936;4.328;2022-11-15T00:04:36;36.83;;;22.63;;
25715;SDS011;13573;50.936;4.328;2022-11-15T00:07:03;38.10;;;23.33;;
25715;SDS011;13573;50.936;4.328;2022-11-15T00:09:29;38.33;;;23.47;;
25715;SDS011;13573;50.936;4.328;2022-11-15T00:11:56;39.17;;;22.83;;
25715;SDS011;13573;50.936;4.328;2022-11-15T00:14:22;37.33;;;23.60;;
25715;SDS011;13573;50.936;4.328;2022-11-15T00:16:49;38.93;;;24.23;;
25715;SDS011;13573;50.936;4.328;2022-11-15T00:19:16;37.53;;;22.73;;
25715;SDS011;13573;50.936;4.328;2022-11-15T00:21:42;38.67;;;23.80;;
25715;SDS011;13573;50.936;4.328;2022-11-15T00:24:10;35.83;;;22.00;;
25715;SDS011;13573;50.936;4.328;2022-11-15T00:26:37;42.67;;;24.50;;
25715;SDS011;13573;50.936;4.328;2022-11-15T00:29:04;38.27;;;23.70;;
25715;SDS011;13573;50.936;4.328;2022-11-15T00:31:30;40.77;;;24.37;;
25715;SDS011;13573;50.936;4.328;2022-11-15T00:33:58;41.97;;;24.73;;
25715;SDS011;13573;50.936;4.328;2022-11-15T00:36:24;35.43;;;23.57;;
25715;SDS011;13573;50.936;4.328;2022-11-15T00:38:50;41.77;;;23.03;;
25715;SDS011;13573;50.936;4.328;2022-11-15T00:41:17;40.93;;;22.73;;
25715;SDS011;13573;50.936;4.328;2022-11-15T00:43:44;45.30;;;23.67;;
25715;SDS011;13573;50.936;4.328;2022-11-15T00:46:10;37.73;;;22.83;;
25715;SDS011;13573;50.936;4.328;2022-11-15T00:48:37;37.53;;;23.53;;
25715;SDS011;13573;50.936;4.328;2022-11-15T00:51:04;38.83;;;23.40;;
25715;SDS011;13573;50.936;4.328;2022-11-15T00:53:30;37.80;;;23.20;;
25715;SDS011;13573;50.936;4.328;2022-11-15T00:55:57;42.03;;;22.97;;
25715;SDS011;13573;50.936;4.328;2022-11-15T00:58:24;42.37;;;25.73;;
25715;SDS011;13573;50.936;4.328;2022-11-15T01:00:50;41.60;;;24.80;;
25715;SDS011;13573;50.936;4.328;2022-11-15T01:03:17;42.17;;;24.43;;
25715;SDS011;13573;50.936;4.328;2022-11-15T01:05:44;44.43;;;23.83;;
25715;SDS011;13573;50.936;4.328;2022-11-15T01:08:12;37.60;;;23.60;;
25715;SDS011;13573;50.936;4.328;2022-11-15T01:10:40;40.43;;;23.47;;
25715;SDS011;13573;50.936;4.328;2022-11-15T01:13:07;42.03;;;24.83;;
25715;SDS011;13573;50.936;4.328;2022-11-15T01:15:34;38.70;;;24.47;;
25715;SDS011;13573;50.936;4.328;2022-11-15T01:18:03;38.50;;;22.60;;
25715;SDS011;13573;50.936;4.328;2022-11-15T01:20:29;39.07;;;23.77;;
25715;SDS011;13573;50.936;4.328;2022-11-15T01:22:56;38.40;;;24.80;;
25715;SDS011;13573;50.936;4.328;2022-11-15T01:25:23;40.53;;;25.73;;
25715;SDS011;13573;50.936;4.328;2022-11-15T01:27:50;44.23;;;24.60;;
25715;SDS011;13573;50.936;4.328;2022-11-15T01:30:17;46.13;;;26.00;;
25715;SDS011;13573;50.936;4.328;2022-11-15T01:32:43;45.07;;;26.27;;
25715;SDS011;13573;50.936;4.328;2022-11-15T01:35:10;41.27;;;25.13;;
25715;SDS011;13573;50.936;4.328;2022-11-15T01:37:36;44.80;;;26.90;;
25715;SDS011;13573;50.936;4.328;2022-11-15T01:40:03;41.87;;;25.07;;
25715;SDS011;13573;50.936;4.328;2022-11-15T01:42:30;43.60;;;25.40;;
25715;SDS011;13573;50.936;4.328;2022-11-15T01:44:57;44.83;;;25.23;;
25715;SDS011;13573;50.936;4.328;2022-11-15T01:47:24;41.13;;;24.90;;
25715;SDS011;13573;50.936;4.328;2022-11-15T01:49:57;44.47;;;26.40;;
25715;SDS011;13573;50.936;4.328;2022-11-15T01:52:27;44.70;;;26.40;;
25715;SDS011;13573;50.936;4.328;2022-11-15T01:55:13;51.53;;;27.30;;
25715;SDS011;13573;50.936;4.328;2022-11-15T01:57:42;45.03;;;26.60;;
25715;SDS011;13573;50.936;4.328;2022-11-15T02:00:11;39.53;;;24.13;;
25715;SDS011;13573;50.936;4.328;2022-11-15T02:02:38;43.73;;;24.77;;
25715;SDS011;13573;50.936;4.328;2022-11-15T02:05:04;35.40;;;22.17;;
25715;SDS011;13573;50.936;4.328;2022-11-15T02:07:32;38.47;;;22.10;;
25715;SDS011;13573;50.936;4.328;2022-11-15T02:10:04;37.33;;;21.03;;
25715;SDS011;13573;50.936;4.328;2022-11-15T02:12:35;39.00;;;21.63;;
25715;SDS011;13573;50.936;4.328;2022-11-15T02:15:03;37.80;;;22.83;;
25715;SDS011;13573;50.936;4.328;2022-11-15T02:20:28;42.80;;;21.53;;
25715;SDS011;13573;50.936;4.328;2022-11-15T02:22:57;32.63;;;20.67;;
25715;SDS011;13573;50.936;4.328;2022-11-15T02:28:27;41.07;;;22.20;;
25715;SDS011;13573;50.936;4.328;2022-11-15T02:31:00;33.57;;;19.97;;
25715;SDS011;13573;50.936;4.328;2022-11-15T02:33:36;33.67;;;21.63;;
25715;SDS011;13573;50.936;4.328;2022-11-15T02:36:11;36.50;;;21.10;;
25715;SDS011;13573;50.936;4.328;2022-11-15T02:38:58;33.10;;;19.17;;
25715;SDS011;13573;50.936;4.328;2022-11-15T02:41:31;40.93;;;20.63;;
25715;SDS011;13573;50.936;4.328;2022-11-15T02:44:00;34.60;;;19.27;;
25715;SDS011;13573;50.936;4.328;2022-11-15T02:46:33;33.97;;;19.10;;
25715;SDS011;13573;50.936;4.328;2022-11-15T02:49:06;35.70;;;19.07;;
25715;SDS011;13573;50.936;4.328;2022-11-15T02:51:32;35.90;;;19.80;;
25715;SDS011;13573;50.936;4.328;2022-11-15T02:53:59;32.33;;;20.53;;
25715;SDS011;13573;50.936;4.328;2022-11-15T02:56:26;30.73;;;19.40;;
25715;SDS011;13573;50.936;4.328;2022-11-15T02:59:13;34.73;;;19.60;;
25715;SDS011;13573;50.936;4.328;2022-11-15T03:01:47;29.67;;;18.67;;
25715;SDS011;13573;50.936;4.328;2022-11-15T03:07:14;27.97;;;17.47;;
25715;SDS011;13573;50.936;4.328;2022-11-15T03:09:51;28.37;;;16.80;;
25715;SDS011;13573;50.936;4.328;2022-11-15T03:12:41;34.87;;;17.93;;
25715;SDS011;13573;50.936;4.328;2022-11-15T03:15:11;23.20;;;14.87;;
25715;SDS011;13573;50.936;4.328;2022-11-15T03:17:45;28.57;;;16.30;;
25715;SDS011;13573;50.936;4.328;2022-11-15T03:20:21;26.13;;;16.13;;
25715;SDS011;13573;50.936;4.328;2022-11-15T03:22:50;22.17;;;14.50;;
25715;SDS011;13573;50.936;4.328;2022-11-15T03:25:18;26.90;;;15.33;;
25715;SDS011;13573;50.936;4.328;2022-11-15T03:27:48;22.67;;;13.23;;
25715;SDS011;13573;50.936;4.328;2022-11-15T03:30:16;23.57;;;14.10;;
25715;SDS011;13573;50.936;4.328;2022-11-15T03:32:44;22.43;;;12.57;;
25715;SDS011;13573;50.936;4.328;2022-11-15T03:35:18;27.93;;;11.93;;
25715;SDS011;13573;50.936;4.328;2022-11-15T03:37:55;18.83;;;11.73;;
25715;SDS011;13573;50.936;4.328;2022-11-15T03:40:24;17.53;;;10.47;;
25715;SDS011;13573;50.936;4.328;2022-11-15T03:42:57;19.10;;;11.00;;
25715;SDS011;13573;50.936;4.328;2022-11-15T03:45:22;19.03;;;10.90;;
25715;SDS011;13573;50.936;4.328;2022-11-15T03:47:52;20.57;;;11.53;;
25715;SDS011;13573;50.936;4.328;2022-11-15T03:50:22;20.60;;;9.80;;
25715;SDS011;13573;50.936;4.328;2022-11-15T03:52:50;18.90;;;10.03;;
25715;SDS011;13573;50.936;4.328;2022-11-15T03:55:18;18.60;;;10.47;;
25715;SDS011;13573;50.936;4.328;2022-11-15T03:57:47;20.53;;;9.50;;
25715;SDS011;13573;50.936;4.328;2022-11-15T04:00:15;20.40;;;9.93;;
25715;SDS011;13573;50.936;4.328;2022-11-15T04:02:42;18.53;;;10.53;;
25715;SDS011;13573;50.936;4.328;2022-11-15T04:05:08;18.57;;;10.63;;
25715;SDS011;13573;50.936;4.328;2022-11-15T04:07:37;16.30;;;9.80;;
25715;SDS011;13573;50.936;4.328;2022-11-15T04:10:03;16.57;;;9.70;;
25715;SDS011;13573;50.936;4.328;2022-11-15T04:12:31;15.33;;;9.73;;
25715;SDS011;13573;50.936;4.328;2022-11-15T04:15:02;18.37;;;10.17;;
25715;SDS011;13573;50.936;4.328;2022-11-15T04:17:35;19.50;;;9.43;;
25715;SDS011;13573;50.936;4.328;2022-11-15T04:20:13;18.47;;;8.90;;
25715;SDS011;13573;50.936;4.328;2022-11-15T04:22:47;17.33;;;9.80;;
25715;SDS011;13573;50.936;4.328;2022-11-15T04:25:20;17.00;;;9.33;;
25715;SDS011;13573;50.936;4.328;2022-11-15T04:27:46;20.83;;;9.43;;
25715;SDS011;13573;50.936;4.328;2022-11-15T04:30:13;16.37;;;10.00;;
25715;SDS011;13573;50.936;4.328;2022-11-15T04:32:40;18.07;;;8.93;;
25715;SDS011;13573;50.936;4.328;2022-11-15T04:35:07;19.83;;;10.00;;
25715;SDS011;13573;50.936;4.328;2022-11-15T04:37:34;17.50;;;9.03;;
25715;SDS011;13573;50.936;4.328;2022-11-15T04:40:01;22.53;;;9.57;;
25715;SDS011;13573;50.936;4.328;2022-11-15T04:42:28;17.93;;;9.30;;
25715;SDS011;13573;50.936;4.328;2022-11-15T04:44:55;20.43;;;9.63;;
25715;SDS011;13573;50.936;4.328;2022-11-15T04:47:21;17.73;;;10.30;;
25715;SDS011;13573;50.936;4.328;2022-11-15T04:49:48;17.00;;;9.57;;
25715;SDS011;13573;50.936;4.328;2022-11-15T04:52:15;16.30;;;9.37;;
25715;SDS011;13573;50.936;4.328;2022-11-15T04:54:41;18.97;;;9.87;;
25715;SDS011;13573;50.936;4.328;2022-11-15T04:57:08;17.33;;;8.77;;
25715;SDS011;13573;50.936;4.328;2022-11-15T04:59:35;16.10;;;8.77;;
25715;SDS011;13573;50.936;4.328;2022-11-15T05:02:02;19.27;;;8.90;;
25715;SDS011;13573;50.936;4.328;2022-11-15T05:04:29;13.40;;;7.90;;
25715;SDS011;13573;50.936;4.328;2022-11-15T05:06:55;17.50;;;8.73;;
25715;SDS011;13573;50.936;4.328;2022-11-15T05:09:22;18.27;;;8.47;;
25715;SDS011;13573;50.936;4.328;2022-11-15T05:11:49;17.90;;;8.87;;
25715;SDS011;13573;50.936;4.328;2022-11-15T05:14:15;18.57;;;7.70;;
25715;SDS011;13573;50.936;4.328;2022-11-15T05:16:42;17.53;;;8.03;;
25715;SDS011;13573;50.936;4.328;2022-11-15T05:19:09;15.47;;;8.03;;
25715;SDS011;13573;50.936;4.328;2022-11-15T05:21:36;13.80;;;7.30;;
25715;SDS011;13573;50.936;4.328;2022-11-15T05:24:03;15.27;;;7.20;;
25715;SDS011;13573;50.936;4.328;2022-11-15T05:26:30;12.00;;;6.83;;
25715;SDS011;13573;50.936;4.328;2022-11-15T05:28:57;13.63;;;7.00;;
25715;SDS011;13573;50.936;4.328;2022-11-15T05:31:25;13.13;;;6.63;;
25715;SDS011;13573;50.936;4.328;2022-11-15T05:33:53;14.27;;;6.37;;
25715;SDS011;13573;50.936;4.328;2022-11-15T05:36:21;15.80;;;6.10;;
25715;SDS011;13573;50.936;4.328;2022-11-15T05:39:07;14.17;;;6.77;;
25715;SDS011;13573;50.936;4.328;2022-11-15T05:41:38;14.70;;;6.60;;
25715;SDS011;13573;50.936;4.328;2022-11-15T05:44:08;12.67;;;6.50;;
25715;SDS011;13573;50.936;4.328;2022-11-15T05:46:37;20.93;;;7.43;;
25715;SDS011;13573;50.936;4.328;2022-11-15T05:49:06;16.67;;;7.27;;
25715;SDS011;13573;50.936;4.328;2022-11-15T05:51:33;14.80;;;7.63;;
25715;SDS011;13573;50.936;4.328;2022-11-15T05:54:00;15.77;;;7.27;;
25715;SDS011;13573;50.936;4.328;2022-11-15T05:56:27;17.37;;;7.60;;
25715;SDS011;13573;50.936;4.328;2022-11-15T05:58:56;15.10;;;7.33;;
25715;SDS011;13573;50.936;4.328;2022-11-15T06:01:24;14.87;;;7.53;;
25715;SDS011;13573;50.936;4.328;2022-11-15T06:03:52;18.17;;;7.60;;
25715;SDS011;13573;50.936;4.328;2022-11-15T06:06:18;18.03;;;7.47;;
25715;SDS011;13573;50.936;4.328;2022-11-15T06:08:45;12.47;;;6.87;;
25715;SDS011;13573;50.936;4.328;2022-11-15T06:11:13;15.33;;;6.93;;
25715;SDS011;13573;50.936;4.328;2022-11-15T06:13:40;17.00;;;7.43;;
25715;SDS011;13573;50.936;4.328;2022-11-15T06:16:07;14.90;;;7.23;;
25715;SDS011;13573;50.936;4.328;2022-11-15T06:18:34;10.57;;;6.33;;
25715;SDS011;13573;50.936;4.328;2022-11-15T06:21:01;16.90;;;6.27;;
25715;SDS011;13573;50.936;4.328;2022-11-15T06:23:28;18.13;;;7.10;;
25715;SDS011;13573;50.936;4.328;2022-11-15T06:25:58;16.53;;;6.13;;
25715;SDS011;13573;50.936;4.328;2022-11-15T06:28:28;15.30;;;6.60;;
25715;SDS011;13573;50.936;4.328;2022-11-15T06:31:02;19.20;;;6.70;;
25715;SDS011;13573;50.936;4.328;2022-11-15T06:33:32;14.77;;;6.30;;
25715;SDS011;13573;50.936;4.328;2022-11-15T06:36:00;15.97;;;6.87;;
25715;SDS011;13573;50.936;4.328;2022-11-15T06:38:30;17.30;;;7.30;;
25715;SDS011;13573;50.936;4.328;2022-11-15T06:41:02;14.83;;;6.10;;
25715;SDS011;13573;50.936;4.328;2022-11-15T06:43:29;15.70;;;6.13;;
25715;SDS011;13573;50.936;4.328;2022-11-15T06:45:57;15.07;;;7.20;;
25715;SDS011;13573;50.936;4.328;2022-11-15T06:48:23;16.53;;;7.30;;
25715;SDS011;13573;50.936;4.328;2022-11-15T06:50:50;24.10;;;7.73;;
25715;SDS011;13573;50.936;4.328;2022-11-15T06:53:18;20.80;;;8.40;;
25715;SDS011;13573;50.936;4.328;2022-11-15T06:55:45;13.20;;;6.80;;
25715;SDS011;13573;50.936;4.328;2022-11-15T06:58:12;19.30;;;7.80;;
25715;SDS011;13573;50.936;4.328;2022-11-15T07:00:39;23.33;;;8.83;;
25715;SDS011;13573;50.936;4.328;2022-11-15T07:03:07;16.40;;;8.37;;
25715;SDS011;13573;50.936;4.328;2022-11-15T07:05:34;15.30;;;7.70;;
25715;SDS011;13573;50.936;4.328;2022-11-15T07:08:01;18.87;;;8.67;;
25715;SDS011;13573;50.936;4.328;2022-11-15T07:10:28;15.40;;;7.50;;
25715;SDS011;13573;50.936;4.328;2022-11-15T07:12:55;18.07;;;7.53;;
25715;SDS011;13573;50.936;4.328;2022-11-15T07:15:23;15.40;;;7.80;;
25715;SDS011;13573;50.936;4.328;2022-11-15T07:17:51;17.50;;;7.23;;
25715;SDS011;13573;50.936;4.328;2022-11-15T07:20:18;13.80;;;7.93;;
25715;SDS011;13573;50.936;4.328;2022-11-15T07:22:45;13.30;;;6.50;;
25715;SDS011;13573;50.936;4.328;2022-11-15T07:25:12;16.80;;;7.20;;
25715;SDS011;13573;50.936;4.328;2022-11-15T07:27:38;12.50;;;6.93;;
25715;SDS011;13573;50.936;4.328;2022-11-15T07:30:05;10.57;;;6.53;;
25715;SDS011;13573;50.936;4.328;2022-11-15T07:32:32;16.83;;;6.40;;
25715;SDS011;13573;50.936;4.328;2022-11-15T07:34:59;14.23;;;6.30;;
25715;SDS011;13573;50.936;4.328;2022-11-15T07:37:25;12.80;;;5.87;;
25715;SDS011;13573;50.936;4.328;2022-11-15T07:39:52;11.37;;;5.47;;
25715;SDS011;13573;50.936;4.328;2022-11-15T07:42:18;13.07;;;6.43;;
25715;SDS011;13573;50.936;4.328;2022-11-15T07:44:51;12.00;;;5.53;;
25715;SDS011;13573;50.936;4.328;2022-11-15T07:47:18;11.83;;;5.00;;
25715;SDS011;13573;50.936;4.328;2022-11-15T07:49:45;11.23;;;4.87;;
25715;SDS011;13573;50.936;4.328;2022-11-15T07:52:12;13.47;;;5.20;;
25715;SDS011;13573;50.936;4.328;2022-11-15T07:54:38;9.53;;;4.57;;
25715;SDS011;13573;50.936;4.328;2022-11-15T07:57:05;6.80;;;4.03;;
25715;SDS011;13573;50.936;4.328;2022-11-15T07:59:33;9.53;;;4.10;;
25715;SDS011;13573;50.936;4.328;2022-11-15T08:02:01;10.47;;;4.40;;
25715;SDS011;13573;50.936;4.328;2022-11-15T08:04:27;6.17;;;3.67;;
25715;SDS011;13573;50.936;4.328;2022-11-15T08:06:54;7.40;;;3.37;;
25715;SDS011;13573;50.936;4.328;2022-11-15T08:09:20;5.37;;;3.53;;
25715;SDS011;13573;50.936;4.328;2022-11-15T08:11:48;8.80;;;3.00;;
25715;SDS011;13573;50.936;4.328;2022-11-15T08:14:14;9.07;;;3.20;;
25715;SDS011;13573;50.936;4.328;2022-11-15T08:16:40;6.93;;;3.23;;
25715;SDS011;13573;50.936;4.328;2022-11-15T08:19:07;13.70;;;3.37;;
25715;SDS011;13573;50.936;4.328;2022-11-15T08:21:34;9.37;;;3.83;;
25715;SDS011;13573;50.936;4.328;2022-11-15T08:24:01;5.03;;;3.17;;
25715;SDS011;13573;50.936;4.328;2022-11-15T08:26:28;10.10;;;3.27;;
25715;SDS011;13573;50.936;4.328;2022-11-15T08:28:56;5.63;;;3.30;;
25715;SDS011;13573;50.936;4.328;2022-11-15T08:31:22;10.37;;;3.00;;
25715;SDS011;13573;50.936;4.328;2022-11-15T08:33:50;8.13;;;2.60;;
25715;SDS011;13573;50.936;4.328;2022-11-15T08:36:16;6.63;;;2.47;;
25715;SDS011;13573;50.936;4.328;2022-11-15T08:38:43;7.77;;;2.90;;
25715;SDS011;13573;50.936;4.328;2022-11-15T08:41:12;8.80;;;2.60;;
25715;SDS011;13573;50.936;4.328;2022-11-15T08:43:38;7.07;;;2.47;;
25715;SDS011;13573;50.936;4.328;2022-11-15T08:46:05;8.10;;;2.73;;
25715;SDS011;13573;50.936;4.328;2022-11-15T08:48:32;6.47;;;3.23;;
25715;SDS011;13573;50.936;4.328;2022-11-15T08:50:58;7.27;;;2.30;;
25715;SDS011;13573;50.936;4.328;2022-11-15T08:53:25;8.20;;;2.70;;
25715;SDS011;13573;50.936;4.328;2022-11-15T08:55:52;6.30;;;2.60;;
25715;SDS011;13573;50.936;4.328;2022-11-15T08:58:18;9.03;;;2.40;;
25715;SDS011;13573;50.936;4.328;2022-11-15T09:00:46;8.53;;;2.83;;
25715;SDS011;13573;50.936;4.328;2022-11-15T09:03:13;6.00;;;2.40;;
25715;SDS011;13573;50.936;4.328;2022-11-15T09:05:40;6.80;;;2.67;;
25715;SDS011;13573;50.936;4.328;2022-11-15T09:08:06;9.77;;;2.70;;
25715;SDS011;13573;50.936;4.328;2022-11-15T09:10:33;7.77;;;2.60;;
25715;SDS011;13573;50.936;4.328;2022-11-15T09:12:59;8.07;;;2.53;;
25715;SDS011;13573;50.936;4.328;2022-11-15T09:15:27;6.70;;;2.30;;
25715;SDS011;13573;50.936;4.328;2022-11-15T09:17:54;11.30;;;3.00;;
25715;SDS011;13573;50.936;4.328;2022-11-15T09:20:22;10.17;;;3.13;;
25715;SDS011;13573;50.936;4.328;2022-11-15T09:22:49;9.63;;;2.33;;
25715;SDS011;13573;50.936;4.328;2022-11-15T09:25:16;10.30;;;2.40;;
25715;SDS011;13573;50.936;4.328;2022-11-15T09:27:42;6.23;;;2.47;;
25715;SDS011;13573;50.936;4.328;2022-11-15T09:30:10;7.43;;;2.37;;
25715;SDS011;13573;50.936;4.328;2022-11-15T09:32:36;7.77;;;2.27;;
25715;SDS011;13573;50.936;4.328;2022-11-15T09:35:03;5.77;;;2.40;;
25715;SDS011;13573;50.936;4.328;2022-11-15T09:37:31;9.07;;;2.07;;
25715;SDS011;13573;50.936;4.328;2022-11-15T09:39:58;5.80;;;2.00;;
25715;SDS011;13573;50.936;4.328;2022-11-15T09:42:29;6.23;;;1.77;;
25715;SDS011;13573;50.936;4.328;2022-11-15T09:45:14;7.60;;;1.83;;
25715;SDS011;13573;50.936;4.328;2022-11-15T09:47:55;6.50;;;1.93;;
25715;SDS011;13573;50.936;4.328;2022-11-15T09:50:31;6.77;;;2.13;;
25715;SDS011;13573;50.936;4.328;2022-11-15T09:52:55;8.03;;;1.90;;
25715;SDS011;13573;50.936;4.328;2022-11-15T09:55:24;7.23;;;1.80;;
25715;SDS011;13573;50.936;4.328;2022-11-15T09:57:53;10.37;;;1.70;;
25715;SDS011;13573;50.936;4.328;2022-11-15T10:00:26;10.10;;;1.77;;
25715;SDS011;13573;50.936;4.328;2022-11-15T10:05:30;8.53;;;2.13;;
25715;SDS011;13573;50.936;4.328;2022-11-15T10:08:02;11.27;;;2.10;;
25715;SDS011;13573;50.936;4.328;2022-11-15T10:10:36;7.40;;;1.77;;
25715;SDS011;13573;50.936;4.328;2022-11-15T10:12:59;6.90;;;1.47;;
25715;SDS011;13573;50.936;4.328;2022-11-15T10:15:26;6.90;;;1.67;;
25715;SDS011;13573;50.936;4.328;2022-11-15T10:20:27;9.33;;;2.03;;
25715;SDS011;13573;50.936;4.328;2022-11-15T10:22:59;9.13;;;2.63;;
25715;SDS011;13573;50.936;4.328;2022-11-15T10:25:26;5.27;;;1.33;;
25715;SDS011;13573;50.936;4.328;2022-11-15T10:27:55;7.37;;;1.77;;
25715;SDS011;13573;50.936;4.328;2022-11-15T10:30:23;10.93;;;2.13;;
25715;SDS011;13573;50.936;4.328;2022-11-15T10:32:50;5.80;;;1.67;;
25715;SDS011;13573;50.936;4.328;2022-11-15T10:35:18;7.83;;;1.73;;
25715;SDS011;13573;50.936;4.328;2022-11-15T10:37:45;9.33;;;1.80;;
25715;SDS011;13573;50.936;4.328;2022-11-15T10:40:16;12.73;;;2.07;;
25715;SDS011;13573;50.936;4.328;2022-11-15T10:42:42;7.50;;;1.90;;
25715;SDS011;13573;50.936;4.328;2022-11-15T10:47:45;6.30;;;1.60;;
25715;SDS011;13573;50.936;4.328;2022-11-15T10:52:45;11.73;;;1.70;;
25715;SDS011;13573;50.936;4.328;2022-11-15T10:57:55;9.70;;;1.80;;
25715;SDS011;13573;50.936;4.328;2022-11-15T11:00:29;9.23;;;1.77;;
25715;SDS011;13573;50.936;4.328;2022-11-15T11:02:58;17.33;;;2.37;;
25715;SDS011;13573;50.936;4.328;2022-11-15T11:05:27;8.23;;;1.70;;
25715;SDS011;13573;50.936;4.328;2022-11-15T11:08:04;5.23;;;1.83;;
25715;SDS011;13573;50.936;4.328;2022-11-15T11:10:32;6.53;;;1.60;;
25715;SDS011;13573;50.936;4.328;2022-11-15T11:15:32;14.87;;;3.00;;
25715;SDS011;13573;50.936;4.328;2022-11-15T11:18:06;8.57;;;1.80;;
25715;SDS011;13573;50.936;4.328;2022-11-15T11:20:37;9.13;;;1.77;;
25715;SDS011;13573;50.936;4.328;2022-11-15T11:23:14;7.87;;;1.67;;
25715;SDS011;13573;50.936;4.328;2022-11-15T11:25:56;10.97;;;1.83;;
25715;SDS011;13573;50.936;4.328;2022-11-15T11:28:38;8.17;;;1.60;;
25715;SDS011;13573;50.936;4.328;2022-11-15T11:33:56;11.43;;;1.70;;
25715;SDS011;13573;50.936;4.328;2022-11-15T11:36:24;10.47;;;2.00;;
25715;SDS011;13573;50.936;4.328;2022-11-15T11:38:52;8.67;;;1.90;;
25715;SDS011;13573;50.936;4.328;2022-11-15T11:41:24;6.13;;;1.80;;
25715;SDS011;13573;50.936;4.328;2022-11-15T11:43:59;5.93;;;1.67;;
25715;SDS011;13573;50.936;4.328;2022-11-15T11:46:27;6.63;;;1.57;;
25715;SDS011;13573;50.936;4.328;2022-11-15T11:48:55;5.67;;;1.60;;
25715;SDS011;13573;50.936;4.328;2022-11-15T11:51:26;10.17;;;1.93;;
25715;SDS011;13573;50.936;4.328;2022-11-15T11:53:55;11.67;;;1.40;;
25715;SDS011;13573;50.936;4.328;2022-11-15T11:56:26;10.40;;;1.37;;
25715;SDS011;13573;50.936;4.328;2022-11-15T11:58:53;8.07;;;1.70;;
25715;SDS011;13573;50.936;4.328;2022-11-15T12:01:24;6.60;;;1.60;;
25715;SDS011;13573;50.936;4.328;2022-11-15T12:03:58;5.57;;;1.70;;
25715;SDS011;13573;50.936;4.328;2022-11-15T12:06:35;12.23;;;1.70;;
25715;SDS011;13573;50.936;4.328;2022-11-15T12:09:07;4.73;;;1.50;;
25715;SDS011;13573;50.936;4.328;2022-11-15T12:11:43;7.70;;;1.33;;
25715;SDS011;13573;50.936;4.328;2022-11-15T12:14:11;6.40;;;1.77;;
25715;SDS011;13573;50.936;4.328;2022-11-15T12:16:36;6.17;;;1.40;;
25715;SDS011;13573;50.936;4.328;2022-11-15T12:19:05;10.97;;;1.97;;
25715;SDS011;13573;50.936;4.328;2022-11-15T12:21:41;6.60;;;1.67;;
25715;SDS011;13573;50.936;4.328;2022-11-15T12:24:11;5.67;;;1.63;;
25715;SDS011;13573;50.936;4.328;2022-11-15T12:26:38;9.27;;;2.00;;
25715;SDS011;13573;50.936;4.328;2022-11-15T12:29:15;10.93;;;1.90;;
25715;SDS011;13573;50.936;4.328;2022-11-15T12:31:39;3.67;;;1.47;;
25715;SDS011;13573;50.936;4.328;2022-11-15T12:36:42;9.97;;;1.80;;
25715;SDS011;13573;50.936;4.328;2022-11-15T12:39:10;7.80;;;2.20;;
25715;SDS011;13573;50.936;4.328;2022-11-15T12:41:38;4.20;;;1.33;;
25715;SDS011;13573;50.936;4.328;2022-11-15T12:44:11;4.20;;;1.50;;
25715;SDS011;13573;50.936;4.328;2022-11-15T12:52:07;5.10;;;1.43;;
25715;SDS011;13573;50.936;4.328;2022-11-15T12:54:52;6.30;;;1.80;;
25715;SDS011;13573;50.936;4.328;2022-11-15T12:57:27;4.00;;;1.50;;
25715;SDS011;13573;50.936;4.328;2022-11-15T12:59:51;8.67;;;2.23;;
25715;SDS011;13573;50.936;4.328;2022-11-15T13:02:24;5.97;;;1.50;;
25715;SDS011;13573;50.936;4.328;2022-11-15T13:04:54;10.10;;;1.90;;
25715;SDS011;13573;50.936;4.328;2022-11-15T13:09:56;4.93;;;1.67;;
25715;SDS011;13573;50.936;4.328;2022-11-15T13:12:57;6.23;;;1.50;;
25715;SDS011;13573;50.936;4.328;2022-11-15T13:17:55;6.47;;;1.80;;
25715;SDS011;13573;50.936;4.328;2022-11-15T13:20:26;3.80;;;1.57;;
25715;SDS011;13573;50.936;4.328;2022-11-15T13:23:00;10.63;;;1.70;;
25715;SDS011;13573;50.936;4.328;2022-11-15T13:25:37;5.63;;;1.67;;
25715;SDS011;13573;50.936;4.328;2022-11-15T13:27:58;6.67;;;1.50;;
25715;SDS011;13573;50.936;4.328;2022-11-15T13:30:27;7.67;;;1.77;;
25715;SDS011;13573;50.936;4.328;2022-11-15T13:32:54;3.33;;;1.70;;
25715;SDS011;13573;50.936;4.328;2022-11-15T13:35:23;7.80;;;1.50;;
25715;SDS011;13573;50.936;4.328;2022-11-15T13:37:53;5.40;;;1.90;;
25715;SDS011;13573;50.936;4.328;2022-11-15T13:40:25;2.80;;;1.37;;
25715;SDS011;13573;50.936;4.328;2022-11-15T13:42:53;3.50;;;1.37;;
25715;SDS011;13573;50.936;4.328;2022-11-15T13:45:20;7.30;;;1.57;;
25715;SDS011;13573;50.936;4.328;2022-11-15T13:47:51;4.23;;;1.50;;
25715;SDS011;13573;50.936;4.328;2022-11-15T13:50:22;7.57;;;1.63;;
25715;SDS011;13573;50.936;4.328;2022-11-15T13:52:49;5.20;;;1.50;;
25715;SDS011;13573;50.936;4.328;2022-11-15T13:55:18;7.73;;;1.57;;
25715;SDS011;13573;50.936;4.328;2022-11-15T13:57:47;6.00;;;1.20;;
25715;SDS011;13573;50.936;4.328;2022-11-15T14:00:24;4.90;;;1.70;;
25715;SDS011;13573;50.936;4.328;2022-11-15T14:02:48;6.60;;;1.70;;
25715;SDS011;13573;50.936;4.328;2022-11-15T14:05:16;5.63;;;1.40;;
25715;SDS011;13573;50.936;4.328;2022-11-15T14:12:50;2.90;;;1.40;;
25715;SDS011;13573;50.936;4.328;2022-11-15T14:17:52;4.33;;;1.33;;
25715;SDS011;13573;50.936;4.328;2022-11-15T14:20:25;7.57;;;2.00;;
25715;SDS011;13573;50.936;4.328;2022-11-15T14:22:59;5.60;;;1.60;;
25715;SDS011;13573;50.936;4.328;2022-11-15T14:25:29;3.53;;;1.40;;
25715;SDS011;13573;50.936;4.328;2022-11-15T14:30:29;4.13;;;1.70;;
25715;SDS011;13573;50.936;4.328;2022-11-15T14:32:56;3.73;;;1.40;;
25715;SDS011;13573;50.936;4.328;2022-11-15T14:35:22;2.77;;;1.40;;
25715;SDS011;13573;50.936;4.328;2022-11-15T14:37:49;8.50;;;1.83;;
25715;SDS011;13573;50.936;4.328;2022-11-15T14:40:18;2.87;;;1.40;;
25715;SDS011;13573;50.936;4.328;2022-11-15T14:42:45;3.07;;;1.40;;
25715;SDS011;13573;50.936;4.328;2022-11-15T14:45:13;4.33;;;2.00;;
25715;SDS011;13573;50.936;4.328;2022-11-15T14:47:41;4.13;;;2.10;;
25715;SDS011;13573;50.936;4.328;2022-11-15T14:50:13;4.97;;;1.87;;
25715;SDS011;13573;50.936;4.328;2022-11-15T14:52:41;3.70;;;1.90;;
25715;SDS011;13573;50.936;4.328;2022-11-15T14:55:17;4.60;;;1.90;;
25715;SDS011;13573;50.936;4.328;2022-11-15T14:57:45;5.00;;;1.80;;
25715;SDS011;13573;50.936;4.328;2022-11-15T15:00:12;5.57;;;2.37;;
25715;SDS011;13573;50.936;4.328;2022-11-15T15:02:40;4.90;;;2.70;;
25715;SDS011;13573;50.936;4.328;2022-11-15T15:05:13;5.00;;;2.13;;
25715;SDS011;13573;50.936;4.328;2022-11-15T15:07:40;4.43;;;2.60;;
25715;SDS011;13573;50.936;4.328;2022-11-15T15:10:06;5.63;;;2.27;;
25715;SDS011;13573;50.936;4.328;2022-11-15T15:12:33;6.97;;;2.23;;
25715;SDS011;13573;50.936;4.328;2022-11-15T15:15:00;5.67;;;2.53;;
25715;SDS011;13573;50.936;4.328;2022-11-15T15:17:26;6.80;;;3.00;;
25715;SDS011;13573;50.936;4.328;2022-11-15T15:19:53;4.63;;;2.33;;
25715;SDS011;13573;50.936;4.328;2022-11-15T15:22:19;6.20;;;3.27;;
25715;SDS011;13573;50.936;4.328;2022-11-15T15:24:50;10.67;;;3.57;;
25715;SDS011;13573;50.936;4.328;2022-11-15T15:27:17;4.83;;;2.70;;
25715;SDS011;13573;50.936;4.328;2022-11-15T15:29:43;3.47;;;2.40;;
25715;SDS011;13573;50.936;4.328;2022-11-15T15:32:10;5.67;;;2.50;;
25715;SDS011;13573;50.936;4.328;2022-11-15T15:34:38;7.40;;;2.97;;
25715;SDS011;13573;50.936;4.328;2022-11-15T15:37:19;4.53;;;2.83;;